sensor_id;sensor_type;location;lat;lon;timestamp;pressure;altitude;pressure_sealevel;temperature;humidity
6393;BME280;3229;42.674;23.282;2022-10-17T00:02:19;95922.41;;;12.34;62.33
6393;BME280;3229;42.674;23.282;2022-10-17T00:04:46;95912.84;;;12.25;62.33
6393;BME280;3229;42.674;23.282;2022-10-17T00:07:13;95924.28;;;12.32;62.50
6393;BME280;3229;42.674;23.282;2022-10-17T00:09:43;95921.94;;;12.29;62.45
6393;BME280;3229;42.674;23.282;2022-10-17T00:12:10;95923.03;;;12.26;62.37
6393;BME280;3229;42.674;23.282;2022-10-17T00:14:38;95904.34;;;12.13;62.53
6393;BME280;3229;42.674;23.282;2022-10-17T00:17:05;95922.44;;;12.23;62.59
6393;BME280;3229;42.674;23.282;2022-10-17T00:19:32;95897.47;;;12.02;62.59
6393;BME280;3229;42.674;23.282;2022-10-17T00:21:59;95922.06;;;12.16;62.68
6393;BME280;3229;42.674;23.282;2022-10-17T00:24:26;95930.47;;;12.18;62.80
6393;BME280;3229;42.674;23.282;2022-10-17T00:26:54;95883.75;;;11.92;62.65
6393;BME280;3229;42.674;23.282;2022-10-17T00:29:21;95928.13;;;12.15;62.96
6393;BME280;3229;42.674;23.282;2022-10-17T00:31:47;95911.00;;;12.04;62.96
6393;BME280;3229;42.674;23.282;2022-10-17T00:34:14;95922.78;;;12.07;62.85
6393;BME280;3229;42.674;23.282;2022-10-17T00:36:41;95928.50;;;12.11;62.93
6393;BME280;3229;42.674;23.282;2022-10-17T00:39:10;95933.75;;;12.09;62.96
6393;BME280;3229;42.674;23.282;2022-10-17T00:41:37;95938.97;;;12.08;62.91
6393;BME280;3229;42.674;23.282;2022-10-17T00:44:53;95927.66;;;11.99;62.93
6393;BME280;3229;42.674;23.282;2022-10-17T00:46:53;95942.69;;;12.03;62.88
6393;BME280;3229;42.674;23.282;2022-10-17T00:49:28;95938.50;;;12.02;63.16
6393;BME280;3229;42.674;23.282;2022-10-17T00:51:59;95944.56;;;12.01;62.94
6393;BME280;3229;42.674;23.282;2022-10-17T00:54:30;95899.44;;;11.76;62.90
6393;BME280;3229;42.674;23.282;2022-10-17T00:56:58;95918.22;;;11.88;63.10
6393;BME280;3229;42.674;23.282;2022-10-17T00:59:27;95891.38;;;11.70;63.14
6393;BME280;3229;42.674;23.282;2022-10-17T01:02:01;95911.22;;;11.79;63.28
6393;BME280;3229;42.674;23.282;2022-10-17T01:04:29;95921.22;;;11.82;63.46
6393;BME280;3229;42.674;23.282;2022-10-17T01:06:55;95930.25;;;11.88;63.29
6393;BME280;3229;42.674;23.282;2022-10-17T01:09:23;95899.41;;;11.65;63.46
6393;BME280;3229;42.674;23.282;2022-10-17T01:11:58;95941.41;;;11.87;63.57
6393;BME280;3229;42.674;23.282;2022-10-17T01:14:36;95931.28;;;11.85;63.37
6393;BME280;3229;42.674;23.282;2022-10-17T01:17:12;95907.94;;;11.66;63.41
6393;BME280;3229;42.674;23.282;2022-10-17T01:19:56;95885.19;;;11.50;63.59
6393;BME280;3229;42.674;23.282;2022-10-17T01:22:32;95880.28;;;11.47;63.36
6393;BME280;3229;42.674;23.282;2022-10-17T01:25:22;95934.28;;;11.79;63.26
6393;BME280;3229;42.674;23.282;2022-10-17T01:28:00;95919.56;;;11.70;63.63
6393;BME280;3229;42.674;23.282;2022-10-17T01:30:54;95933.78;;;11.74;63.58
6393;BME280;3229;42.674;23.282;2022-10-17T01:33:52;95925.28;;;11.73;63.74
6393;BME280;3229;42.674;23.282;2022-10-17T01:36:30;95923.88;;;11.69;63.76
6393;BME280;3229;42.674;23.282;2022-10-17T01:39:04;95934.13;;;11.69;63.67
6393;BME280;3229;42.674;23.282;2022-10-17T01:41:37;95934.25;;;11.68;63.66
6393;BME280;3229;42.674;23.282;2022-10-17T01:44:10;95942.88;;;11.67;63.56
6393;BME280;3229;42.674;23.282;2022-10-17T01:46:40;95942.97;;;11.65;63.64
6393;BME280;3229;42.674;23.282;2022-10-17T01:49:09;95944.72;;;11.65;63.96
6393;BME280;3229;42.674;23.282;2022-10-17T01:51:41;95945.66;;;11.64;63.91
6393;BME280;3229;42.674;23.282;2022-10-17T01:54:12;95945.78;;;11.62;63.84
6393;BME280;3229;42.674;23.282;2022-10-17T01:56:41;95951.81;;;11.61;63.96
6393;BME280;3229;42.674;23.282;2022-10-17T01:59:12;95945.19;;;11.59;64.05
6393;BME280;3229;42.674;23.282;2022-10-17T02:01:43;95939.44;;;11.55;64.02
6393;BME280;3229;42.674;23.282;2022-10-17T02:04:11;95954.69;;;11.56;63.94
6393;BME280;3229;42.674;23.282;2022-10-17T02:06:38;95953.06;;;11.55;63.76
6393;BME280;3229;42.674;23.282;2022-10-17T02:09:20;95936.63;;;11.47;64.02
6393;BME280;3229;42.674;23.282;2022-10-17T02:11:56;95930.09;;;11.43;64.06
6393;BME280;3229;42.674;23.282;2022-10-17T02:14:34;95922.41;;;11.32;63.99
6393;BME280;3229;42.674;23.282;2022-10-17T02:17:13;95958.66;;;11.49;64.19
6393;BME280;3229;42.674;23.282;2022-10-17T02:19:54;95928.22;;;11.34;64.04
6393;BME280;3229;42.674;23.282;2022-10-17T02:22:40;95947.09;;;11.44;64.34
6393;BME280;3229;42.674;23.282;2022-10-17T02:25:13;95952.81;;;11.47;64.11
6393;BME280;3229;42.674;23.282;2022-10-17T02:27:47;95958.06;;;11.46;64.09
6393;BME280;3229;42.674;23.282;2022-10-17T02:30:24;95956.44;;;11.45;64.00
6393;BME280;3229;42.674;23.282;2022-10-17T02:32:59;95941.25;;;11.30;64.28
6393;BME280;3229;42.674;23.282;2022-10-17T02:35:29;95948.22;;;11.28;64.06
6393;BME280;3229;42.674;23.282;2022-10-17T02:37:58;95976.22;;;11.43;64.16
6393;BME280;3229;42.674;23.282;2022-10-17T02:40:26;95978.06;;;11.41;64.02
6393;BME280;3229;42.674;23.282;2022-10-17T02:42:57;95981.53;;;11.40;64.30
6393;BME280;3229;42.674;23.282;2022-10-17T02:45:26;95978.16;;;11.39;64.28
6393;BME280;3229;42.674;23.282;2022-10-17T02:47:59;95981.66;;;11.38;64.33
6393;BME280;3229;42.674;23.282;2022-10-17T02:50:36;95977.47;;;11.37;64.33
6393;BME280;3229;42.674;23.282;2022-10-17T02:53:07;95971.28;;;11.28;64.22
6393;BME280;3229;42.674;23.282;2022-10-17T02:55:40;95949.44;;;11.12;64.25
6393;BME280;3229;42.674;23.282;2022-10-17T02:58:15;95993.06;;;11.34;64.06
6393;BME280;3229;42.674;23.282;2022-10-17T03:00:44;95977.34;;;11.27;64.19
6393;BME280;3229;42.674;23.282;2022-10-17T03:03:22;95993.19;;;11.33;64.23
6393;BME280;3229;42.674;23.282;2022-10-17T03:05:49;95990.00;;;11.29;64.04
6393;BME280;3229;42.674;23.282;2022-10-17T03:08:16;95999.44;;;11.28;64.08
6393;BME280;3229;42.674;23.282;2022-10-17T03:10:43;95997.91;;;11.26;64.15
6393;BME280;3229;42.674;23.282;2022-10-17T03:13:10;95999.06;;;11.22;64.06
6393;BME280;3229;42.674;23.282;2022-10-17T03:15:37;96003.97;;;11.25;64.14
6393;BME280;3229;42.674;23.282;2022-10-17T03:18:04;95998.16;;;11.23;64.16
6393;BME280;3229;42.674;23.282;2022-10-17T03:20:32;96005.91;;;11.21;64.35
6393;BME280;3229;42.674;23.282;2022-10-17T03:22:59;95996.81;;;11.17;63.98
6393;BME280;3229;42.674;23.282;2022-10-17T03:25:26;96006.03;;;11.20;64.16
6393;BME280;3229;42.674;23.282;2022-10-17T03:27:53;96008.72;;;11.18;64.07
6393;BME280;3229;42.674;23.282;2022-10-17T03:30:20;96007.06;;;11.17;64.01
6393;BME280;3229;42.674;23.282;2022-10-17T03:32:47;95987.25;;;11.08;64.11
6393;BME280;3229;42.674;23.282;2022-10-17T03:35:14;96001.25;;;11.15;64.04
6393;BME280;3229;42.674;23.282;2022-10-17T03:37:42;95999.09;;;11.09;64.13
6393;BME280;3229;42.674;23.282;2022-10-17T03:40:09;96005.63;;;11.13;64.10
6393;BME280;3229;42.674;23.282;2022-10-17T03:42:36;96008.31;;;11.12;64.27
6393;BME280;3229;42.674;23.282;2022-10-17T03:45:04;96010.06;;;11.11;64.24
6393;BME280;3229;42.674;23.282;2022-10-17T03:47:31;96005.88;;;11.10;64.15
6393;BME280;3229;42.674;23.282;2022-10-17T03:49:57;95982.69;;;10.88;64.15
6393;BME280;3229;42.674;23.282;2022-10-17T03:52:24;95984.22;;;10.90;64.17
6393;BME280;3229;42.674;23.282;2022-10-17T03:54:53;96000.19;;;10.94;64.19
6393;BME280;3229;42.674;23.282;2022-10-17T03:57:23;96013.03;;;11.05;64.07
6393;BME280;3229;42.674;23.282;2022-10-17T03:59:50;95960.03;;;10.70;64.29
6393;BME280;3229;42.674;23.282;2022-10-17T04:02:17;95976.72;;;10.76;64.16
6393;BME280;3229;42.674;23.282;2022-10-17T04:04:44;96019.41;;;10.99;64.16
6393;BME280;3229;42.674;23.282;2022-10-17T04:07:14;95971.91;;;10.71;64.23
6393;BME280;3229;42.674;23.282;2022-10-17T04:09:40;96028.03;;;10.98;64.22
6393;BME280;3229;42.674;23.282;2022-10-17T04:12:23;96024.75;;;10.96;64.13
6393;BME280;3229;42.674;23.282;2022-10-17T04:14:51;95973.25;;;10.64;64.35
6393;BME280;3229;42.674;23.282;2022-10-17T04:17:19;96018.31;;;10.91;64.22
6393;BME280;3229;42.674;23.282;2022-10-17T04:19:47;96026.59;;;10.94;64.30
6393;BME280;3229;42.674;23.282;2022-10-17T04:22:14;96025.31;;;10.89;64.29
6393;BME280;3229;42.674;23.282;2022-10-17T04:24:44;96031.00;;;10.92;64.26
6393;BME280;3229;42.674;23.282;2022-10-17T04:27:11;96006.00;;;10.72;64.20
6393;BME280;3229;42.674;23.282;2022-10-17T04:29:43;96035.41;;;10.90;64.23
6393;BME280;3229;42.674;23.282;2022-10-17T04:32:10;96031.22;;;10.89;64.38
6393;BME280;3229;42.674;23.282;2022-10-17T04:34:51;96009.50;;;10.71;64.49
6393;BME280;3229;42.674;23.282;2022-10-17T04:37:18;96036.44;;;10.88;64.47
6393;BME280;3229;42.674;23.282;2022-10-17T04:39:45;96034.81;;;10.87;64.41
6393;BME280;3229;42.674;23.282;2022-10-17T04:42:12;96020.22;;;10.76;64.24
6393;BME280;3229;42.674;23.282;2022-10-17T04:44:40;96010.63;;;10.67;64.23
6393;BME280;3229;42.674;23.282;2022-10-17T04:47:07;96045.88;;;10.87;64.30
6393;BME280;3229;42.674;23.282;2022-10-17T04:49:34;96039.13;;;10.86;64.45
6393;BME280;3229;42.674;23.282;2022-10-17T04:52:00;96047.59;;;10.87;64.43
6393;BME280;3229;42.674;23.282;2022-10-17T04:54:27;96045.88;;;10.87;64.21
6393;BME280;3229;42.674;23.282;2022-10-17T04:56:54;96049.03;;;10.91;64.36
6393;BME280;3229;42.674;23.282;2022-10-17T04:59:21;96042.97;;;10.92;64.29
6393;BME280;3229;42.674;23.282;2022-10-17T05:01:49;96019.50;;;10.74;64.28
6393;BME280;3229;42.674;23.282;2022-10-17T05:04:16;96051.59;;;10.91;64.47
6393;BME280;3229;42.674;23.282;2022-10-17T05:06:43;96048.84;;;10.94;63.95
6393;BME280;3229;42.674;23.282;2022-10-17T05:09:10;96051.19;;;10.97;64.19
6393;BME280;3229;42.674;23.282;2022-10-17T05:11:36;96057.41;;;11.05;63.98
6393;BME280;3229;42.674;23.282;2022-10-17T05:14:03;96056.28;;;11.10;64.04
6393;BME280;3229;42.674;23.282;2022-10-17T05:16:31;96048.88;;;11.05;63.79
6393;BME280;3229;42.674;23.282;2022-10-17T05:18:59;96061.75;;;11.16;63.76
6393;BME280;3229;42.674;23.282;2022-10-17T05:21:27;96074.97;;;11.23;63.65
6393;BME280;3229;42.674;23.282;2022-10-17T05:23:55;96057.25;;;11.20;64.06
6393;BME280;3229;42.674;23.282;2022-10-17T05:26:22;96080.94;;;11.35;63.23
6393;BME280;3229;42.674;23.282;2022-10-17T05:28:48;96079.59;;;11.42;63.38
6393;BME280;3229;42.674;23.282;2022-10-17T05:31:16;96064.44;;;11.39;63.20
6393;BME280;3229;42.674;23.282;2022-10-17T05:33:43;96089.00;;;11.54;63.03
6393;BME280;3229;42.674;23.282;2022-10-17T05:36:11;96086.69;;;11.62;63.01
6393;BME280;3229;42.674;23.282;2022-10-17T05:38:38;96063.38;;;11.54;62.74
6393;BME280;3229;42.674;23.282;2022-10-17T05:41:05;96071.94;;;11.66;62.91
6393;BME280;3229;42.674;23.282;2022-10-17T05:43:33;96092.88;;;11.84;62.52
6393;BME280;3229;42.674;23.282;2022-10-17T05:46:02;96092.31;;;11.91;62.49
6393;BME280;3229;42.674;23.282;2022-10-17T05:48:29;96082.88;;;11.92;62.38
6393;BME280;3229;42.674;23.282;2022-10-17T05:50:57;96069.00;;;11.94;62.09
6393;BME280;3229;42.674;23.282;2022-10-17T05:53:29;96092.75;;;12.20;61.84
6393;BME280;3229;42.674;23.282;2022-10-17T05:55:57;96078.31;;;12.30;61.64
6393;BME280;3229;42.674;23.282;2022-10-17T05:58:24;96095.03;;;12.59;61.30
6393;BME280;3229;42.674;23.282;2022-10-17T06:00:51;96099.34;;;12.80;61.17
6393;BME280;3229;42.674;23.282;2022-10-17T06:03:18;96103.22;;;12.97;60.92
6393;BME280;3229;42.674;23.282;2022-10-17T06:05:45;96099.56;;;13.11;60.76
6393;BME280;3229;42.674;23.282;2022-10-17T06:08:12;96101.44;;;13.32;60.36
6393;BME280;3229;42.674;23.282;2022-10-17T06:10:40;96068.16;;;13.19;60.20
6393;BME280;3229;42.674;23.282;2022-10-17T06:13:07;96114.44;;;13.73;60.40
6393;BME280;3229;42.674;23.282;2022-10-17T06:15:33;96110.53;;;14.32;92.96
6393;BME280;3229;42.674;23.282;2022-10-17T06:18:00;96098.59;;;15.03;93.68
6393;BME280;3229;42.674;23.282;2022-10-17T06:20:27;96090.50;;;15.77;89.14
6393;BME280;3229;42.674;23.282;2022-10-17T06:22:54;96120.44;;;16.75;82.98
6393;BME280;3229;42.674;23.282;2022-10-17T06:25:21;96119.72;;;17.48;78.23
6393;BME280;3229;42.674;23.282;2022-10-17T06:27:49;96109.81;;;18.07;73.55
6393;BME280;3229;42.674;23.282;2022-10-17T06:30:16;96109.84;;;18.76;70.13
6393;BME280;3229;42.674;23.282;2022-10-17T06:32:43;96133.38;;;19.60;66.85
6393;BME280;3229;42.674;23.282;2022-10-17T06:35:10;96146.50;;;20.41;63.93
6393;BME280;3229;42.674;23.282;2022-10-17T06:37:37;96137.19;;;21.04;61.28
6393;BME280;3229;42.674;23.282;2022-10-17T06:40:04;96144.38;;;21.81;59.09
6393;BME280;3229;42.674;23.282;2022-10-17T06:42:33;96141.03;;;22.41;56.86
6393;BME280;3229;42.674;23.282;2022-10-17T06:45:02;96152.53;;;23.07;55.21
6393;BME280;3229;42.674;23.282;2022-10-17T06:47:28;96161.34;;;23.65;53.34
6393;BME280;3229;42.674;23.282;2022-10-17T06:49:55;96156.13;;;24.23;51.43
6393;BME280;3229;42.674;23.282;2022-10-17T06:52:22;96159.22;;;24.76;49.85
6393;BME280;3229;42.674;23.282;2022-10-17T06:54:49;96157.97;;;25.28;48.80
6393;BME280;3229;42.674;23.282;2022-10-17T06:57:17;96155.19;;;25.77;47.37
6393;BME280;3229;42.674;23.282;2022-10-17T06:59:44;96153.69;;;26.23;45.92
6393;BME280;3229;42.674;23.282;2022-10-17T07:02:12;96112.94;;;26.40;44.95
6393;BME280;3229;42.674;23.282;2022-10-17T07:04:51;96085.50;;;26.69;43.70
6393;BME280;3229;42.674;23.282;2022-10-17T07:07:20;96154.59;;;27.55;43.22
6393;BME280;3229;42.674;23.282;2022-10-17T07:09:47;96152.47;;;27.90;42.34
6393;BME280;3229;42.674;23.282;2022-10-17T07:12:15;96161.56;;;28.25;41.35
6393;BME280;3229;42.674;23.282;2022-10-17T07:14:43;96157.31;;;28.56;40.70
6393;BME280;3229;42.674;23.282;2022-10-17T07:17:13;96153.66;;;28.82;40.35
6393;BME280;3229;42.674;23.282;2022-10-17T07:19:39;96159.09;;;29.12;39.44
6393;BME280;3229;42.674;23.282;2022-10-17T07:22:07;96144.44;;;29.35;38.87
6393;BME280;3229;42.674;23.282;2022-10-17T07:24:34;96158.38;;;29.60;38.17
6393;BME280;3229;42.674;23.282;2022-10-17T07:27:02;96123.94;;;29.55;37.76
6393;BME280;3229;42.674;23.282;2022-10-17T07:29:28;96115.09;;;29.68;37.46
6393;BME280;3229;42.674;23.282;2022-10-17T07:31:55;96136.56;;;30.02;36.97
6393;BME280;3229;42.674;23.282;2022-10-17T07:34:24;96148.47;;;30.22;36.78
6393;BME280;3229;42.674;23.282;2022-10-17T07:36:52;96171.47;;;30.45;36.37
6393;BME280;3229;42.674;23.282;2022-10-17T07:39:19;96150.00;;;30.42;35.68
6393;BME280;3229;42.674;23.282;2022-10-17T07:41:47;96138.63;;;30.41;35.46
6393;BME280;3229;42.674;23.282;2022-10-17T07:44:15;96169.25;;;30.72;35.22
6393;BME280;3229;42.674;23.282;2022-10-17T07:46:42;96160.88;;;30.76;35.10
6393;BME280;3229;42.674;23.282;2022-10-17T07:49:09;96171.91;;;30.84;35.08
6393;BME280;3229;42.674;23.282;2022-10-17T07:51:37;96156.38;;;30.76;34.62
6393;BME280;3229;42.674;23.282;2022-10-17T07:54:04;96178.56;;;30.87;34.58
6393;BME280;3229;42.674;23.282;2022-10-17T07:56:31;96172.47;;;30.86;34.70
6393;BME280;3229;42.674;23.282;2022-10-17T07:58:58;96170.50;;;30.82;34.18
6393;BME280;3229;42.674;23.282;2022-10-17T08:01:25;96159.09;;;30.69;34.32
6393;BME280;3229;42.674;23.282;2022-10-17T08:03:52;96170.84;;;30.73;34.45
6393;BME280;3229;42.674;23.282;2022-10-17T08:06:19;96167.16;;;30.63;34.80
6393;BME280;3229;42.674;23.282;2022-10-17T08:08:47;96118.34;;;30.12;35.16
6393;BME280;3229;42.674;23.282;2022-10-17T08:11:14;96159.53;;;30.13;34.97
6393;BME280;3229;42.674;23.282;2022-10-17T08:13:41;96163.78;;;29.84;35.27
6393;BME280;3229;42.674;23.282;2022-10-17T08:16:10;96124.75;;;29.37;35.17
6393;BME280;3229;42.674;23.282;2022-10-17T08:18:39;96160.41;;;29.40;35.47
6393;BME280;3229;42.674;23.282;2022-10-17T08:21:06;96162.63;;;29.24;35.62
6393;BME280;3229;42.674;23.282;2022-10-17T08:23:33;96159.50;;;29.09;35.38
6393;BME280;3229;42.674;23.282;2022-10-17T08:26:04;96160.69;;;28.88;35.21
6393;BME280;3229;42.674;23.282;2022-10-17T08:28:34;96159.91;;;28.63;35.77
6393;BME280;3229;42.674;23.282;2022-10-17T08:31:02;96149.59;;;28.30;35.65
6393;BME280;3229;42.674;23.282;2022-10-17T08:33:29;96113.69;;;27.79;35.41
6393;BME280;3229;42.674;23.282;2022-10-17T08:35:57;96131.34;;;27.58;35.73
6393;BME280;3229;42.674;23.282;2022-10-17T08:38:24;96134.47;;;27.35;35.74
6393;BME280;3229;42.674;23.282;2022-10-17T08:40:58;96148.47;;;27.09;36.04
6393;BME280;3229;42.674;23.282;2022-10-17T08:43:50;96145.84;;;26.76;36.06
6393;BME280;3229;42.674;23.282;2022-10-17T08:46:22;96145.25;;;26.54;36.18
6393;BME280;3229;42.674;23.282;2022-10-17T08:48:57;96148.25;;;26.31;36.44
6393;BME280;3229;42.674;23.282;2022-10-17T08:51:30;96144.19;;;26.09;36.50
6393;BME280;3229;42.674;23.282;2022-10-17T08:54:04;96130.53;;;25.72;36.43
6393;BME280;3229;42.674;23.282;2022-10-17T08:56:37;96147.25;;;25.64;36.40
6393;BME280;3229;42.674;23.282;2022-10-17T08:59:10;96141.72;;;25.39;36.77
6393;BME280;3229;42.674;23.282;2022-10-17T09:01:43;96108.06;;;25.01;37.15
6393;BME280;3229;42.674;23.282;2022-10-17T09:04:29;96151.19;;;25.06;36.83
6393;BME280;3229;42.674;23.282;2022-10-17T09:07:03;96155.25;;;24.87;36.99
6393;BME280;3229;42.674;23.282;2022-10-17T09:09:36;96150.34;;;24.70;37.64
6393;BME280;3229;42.674;23.282;2022-10-17T09:12:16;96150.59;;;24.54;37.51
6393;BME280;3229;42.674;23.282;2022-10-17T09:15:02;96144.63;;;24.39;37.47
6393;BME280;3229;42.674;23.282;2022-10-17T09:17:44;96148.28;;;24.23;37.46
6393;BME280;3229;42.674;23.282;2022-10-17T09:20:18;96148.16;;;24.10;37.91
6393;BME280;3229;42.674;23.282;2022-10-17T09:22:50;96142.63;;;23.98;37.85
6393;BME280;3229;42.674;23.282;2022-10-17T09:25:19;96132.19;;;23.83;38.06
6393;BME280;3229;42.674;23.282;2022-10-17T09:27:48;96147.63;;;23.78;37.74
6393;BME280;3229;42.674;23.282;2022-10-17T09:30:28;96140.06;;;23.68;38.15
6393;BME280;3229;42.674;23.282;2022-10-17T09:32:58;96131.63;;;23.51;37.94
6393;BME280;3229;42.674;23.282;2022-10-17T09:35:26;96133.97;;;23.46;38.09
6393;BME280;3229;42.674;23.282;2022-10-17T09:37:54;96134.50;;;23.42;38.26
6393;BME280;3229;42.674;23.282;2022-10-17T09:40:24;96125.31;;;23.31;38.01
6393;BME280;3229;42.674;23.282;2022-10-17T09:42:52;96130.94;;;23.28;38.12
6393;BME280;3229;42.674;23.282;2022-10-17T09:45:20;96129.03;;;23.22;38.22
6393;BME280;3229;42.674;23.282;2022-10-17T09:47:57;96132.53;;;23.14;38.03
6393;BME280;3229;42.674;23.282;2022-10-17T09:50:29;96130.59;;;23.01;37.81
6393;BME280;3229;42.674;23.282;2022-10-17T09:53:00;96124.53;;;23.01;37.67
6393;BME280;3229;42.674;23.282;2022-10-17T09:55:36;96114.56;;;22.90;37.79
6393;BME280;3229;42.674;23.282;2022-10-17T09:58:05;96123.19;;;22.90;37.63
6393;BME280;3229;42.674;23.282;2022-10-17T10:00:34;96103.91;;;22.76;37.50
6393;BME280;3229;42.674;23.282;2022-10-17T10:03:14;96101.03;;;22.71;37.80
6393;BME280;3229;42.674;23.282;2022-10-17T10:05:56;96084.53;;;22.56;37.75
6393;BME280;3229;42.674;23.282;2022-10-17T10:08:27;96062.22;;;22.39;37.67
6393;BME280;3229;42.674;23.282;2022-10-17T10:10:57;96108.53;;;22.66;37.57
6393;BME280;3229;42.674;23.282;2022-10-17T10:13:25;96091.38;;;22.57;37.37
6393;BME280;3229;42.674;23.282;2022-10-17T10:15:53;96104.69;;;22.62;37.41
6393;BME280;3229;42.674;23.282;2022-10-17T10:18:29;96084.78;;;22.46;37.14
6393;BME280;3229;42.674;23.282;2022-10-17T10:21:08;96100.00;;;22.58;37.29
6393;BME280;3229;42.674;23.282;2022-10-17T10:23:37;96093.69;;;22.52;37.11
6393;BME280;3229;42.674;23.282;2022-10-17T10:26:17;96106.75;;;22.52;37.00
6393;BME280;3229;42.674;23.282;2022-10-17T10:28:52;96081.91;;;22.41;36.97
6393;BME280;3229;42.674;23.282;2022-10-17T10:31:26;96099.09;;;22.50;36.92
6393;BME280;3229;42.674;23.282;2022-10-17T10:33:55;96096.84;;;22.47;36.97
6393;BME280;3229;42.674;23.282;2022-10-17T10:36:22;96094.41;;;22.46;36.71
6393;BME280;3229;42.674;23.282;2022-10-17T10:38:54;96086.75;;;22.44;36.64
6393;BME280;3229;42.674;23.282;2022-10-17T10:41:22;96076.25;;;22.38;36.70
6393;BME280;3229;42.674;23.282;2022-10-17T10:43:53;96048.69;;;22.20;36.53
6393;BME280;3229;42.674;23.282;2022-10-17T10:46:24;96083.69;;;22.41;36.74
6393;BME280;3229;42.674;23.282;2022-10-17T10:48:55;96080.28;;;22.40;36.67
6393;BME280;3229;42.674;23.282;2022-10-17T10:51:28;96077.06;;;22.38;36.50
6393;BME280;3229;42.674;23.282;2022-10-17T10:54:02;96058.25;;;22.28;36.48
6393;BME280;3229;42.674;23.282;2022-10-17T10:56:35;96065.97;;;22.36;36.39
6393;BME280;3229;42.674;23.282;2022-10-17T10:59:09;96065.16;;;22.36;36.42
6393;BME280;3229;42.674;23.282;2022-10-17T11:01:42;96045.72;;;22.23;36.47
6393;BME280;3229;42.674;23.282;2022-10-17T11:04:20;96068.75;;;22.35;36.37
6393;BME280;3229;42.674;23.282;2022-10-17T11:06:52;96060.31;;;22.33;36.30
6393;BME280;3229;42.674;23.282;2022-10-17T11:09:30;96035.41;;;22.15;36.14
6393;BME280;3229;42.674;23.282;2022-10-17T11:12:04;96057.41;;;22.27;36.46
6393;BME280;3229;42.674;23.282;2022-10-17T11:14:42;96061.47;;;22.30;36.37
6393;BME280;3229;42.674;23.282;2022-10-17T11:17:18;96052.03;;;22.29;36.10
6393;BME280;3229;42.674;23.282;2022-10-17T11:19:57;96027.94;;;22.12;36.07
6393;BME280;3229;42.674;23.282;2022-10-17T11:22:28;96049.59;;;22.27;36.15
6393;BME280;3229;42.674;23.282;2022-10-17T11:24:59;96021.22;;;22.10;36.10
6393;BME280;3229;42.674;23.282;2022-10-17T11:27:29;95993.34;;;21.95;36.14
6393;BME280;3229;42.674;23.282;2022-10-17T11:29:57;96015.22;;;22.09;36.17
6393;BME280;3229;42.674;23.282;2022-10-17T11:32:27;96035.66;;;22.20;36.07
6393;BME280;3229;42.674;23.282;2022-10-17T11:35:03;96043.13;;;22.23;36.13
6393;BME280;3229;42.674;23.282;2022-10-17T11:37:35;96016.81;;;22.10;35.94
6393;BME280;3229;42.674;23.282;2022-10-17T11:40:09;96000.97;;;21.97;35.87
6393;BME280;3229;42.674;23.282;2022-10-17T11:42:52;96022.88;;;22.11;35.57
6393;BME280;3229;42.674;23.282;2022-10-17T11:45:22;95970.22;;;21.77;35.83
6393;BME280;3229;42.674;23.282;2022-10-17T11:47:56;95991.97;;;21.85;35.79
6393;BME280;3229;42.674;23.282;2022-10-17T11:50:28;96012.59;;;22.09;35.57
6393;BME280;3229;42.674;23.282;2022-10-17T11:53:00;96023.69;;;22.11;35.80
6393;BME280;3229;42.674;23.282;2022-10-17T11:55:30;96025.78;;;22.16;35.48
6393;BME280;3229;42.674;23.282;2022-10-17T11:58:11;96017.00;;;22.09;35.47
6393;BME280;3229;42.674;23.282;2022-10-17T12:00:50;96005.66;;;22.01;35.47
6393;BME280;3229;42.674;23.282;2022-10-17T12:03:48;95998.75;;;21.94;35.52
6393;BME280;3229;42.674;23.282;2022-10-17T12:06:33;95989.81;;;21.88;35.49
6393;BME280;3229;42.674;23.282;2022-10-17T12:09:10;95985.94;;;21.84;35.46
6393;BME280;3229;42.674;23.282;2022-10-17T12:11:48;96021.59;;;22.07;35.61
6393;BME280;3229;42.674;23.282;2022-10-17T12:14:36;96018.34;;;22.04;35.48
6393;BME280;3229;42.674;23.282;2022-10-17T12:17:04;96019.34;;;22.03;35.77
6393;BME280;3229;42.674;23.282;2022-10-17T12:19:33;96021.13;;;22.03;35.58
6393;BME280;3229;42.674;23.282;2022-10-17T12:22:17;96025.53;;;22.02;35.61
6393;BME280;3229;42.674;23.282;2022-10-17T12:24:54;96012.84;;;21.99;35.59
6393;BME280;3229;42.674;23.282;2022-10-17T12:27:23;96012.41;;;21.96;35.72
6393;BME280;3229;42.674;23.282;2022-10-17T12:29:58;96010.44;;;21.98;35.81
6393;BME280;3229;42.674;23.282;2022-10-17T12:32:26;96012.22;;;21.97;35.81
6393;BME280;3229;42.674;23.282;2022-10-17T12:34:53;95996.03;;;21.87;35.84
6393;BME280;3229;42.674;23.282;2022-10-17T12:43:56;95998.28;;;21.90;35.90
6393;BME280;3229;42.674;23.282;2022-10-17T12:46:55;95996.38;;;21.84;35.87
6393;BME280;3229;42.674;23.282;2022-10-17T12:49:36;96005.16;;;21.83;35.79
6393;BME280;3229;42.674;23.282;2022-10-17T12:54:52;96013.63;;;21.85;35.67
6393;BME280;3229;42.674;23.282;2022-10-17T12:57:26;96007.97;;;21.82;35.92
6393;BME280;3229;42.674;23.282;2022-10-17T12:59:57;96015.59;;;21.83;35.97
6393;BME280;3229;42.674;23.282;2022-10-17T13:02:26;96004.56;;;21.81;36.05
6393;BME280;3229;42.674;23.282;2022-10-17T13:05:02;95975.38;;;21.63;36.09
6393;BME280;3229;42.674;23.282;2022-10-17T13:07:32;95993.19;;;21.74;36.04
6393;BME280;3229;42.674;23.282;2022-10-17T13:10:00;96004.25;;;21.76;36.13
6393;BME280;3229;42.674;23.282;2022-10-17T13:12:32;95991.94;;;21.70;36.18
6393;BME280;3229;42.674;23.282;2022-10-17T13:15:03;95999.88;;;21.76;36.25
6393;BME280;3229;42.674;23.282;2022-10-17T13:17:32;95990.94;;;21.71;36.26
6393;BME280;3229;42.674;23.282;2022-10-17T13:19:59;95980.94;;;21.60;36.10
6393;BME280;3229;42.674;23.282;2022-10-17T13:22:28;96005.22;;;21.75;36.43
6393;BME280;3229;42.674;23.282;2022-10-17T13:25:08;96005.41;;;21.73;36.21
6393;BME280;3229;42.674;23.282;2022-10-17T13:27:36;96006.41;;;21.72;36.18
6393;BME280;3229;42.674;23.282;2022-10-17T13:30:24;96005.75;;;21.70;36.12
6393;BME280;3229;42.674;23.282;2022-10-17T13:32:52;96000.72;;;21.69;36.47
6393;BME280;3229;42.674;23.282;2022-10-17T13:35:26;96009.53;;;21.68;36.35
6393;BME280;3229;42.674;23.282;2022-10-17T13:37:54;96004.47;;;21.66;36.44
6393;BME280;3229;42.674;23.282;2022-10-17T13:40:23;95998.47;;;21.66;36.38